Time;durP1;ratioP1;P1;durP2;ratioP2;P2;SDS_P1;SDS_P2;PMS_P1;PMS_P2;Temp;Humidity;BMP_temperature;BMP_pressure;BME280_temperature;BME280_humidity;BME280_pressure;Samples;Min_cycle;Max_cycle;Signal;HPM_P1;HPM_P2
2024/01/15 00:00:42;;;;;;;;;;;;;;;-0.18;61.71;99190.97;5000629;28;19968;-82
2024/01/15 00:03:10;;;;;;;;;;;;;;;-0.22;61.53;99174.00;5020703;28;19906;-83
2024/01/15 00:05:36;;;;;;;;;;;;;;;-0.28;61.84;99178.84;5002651;28;19985;-82
2024/01/15 00:08:03;;;;;;;;;;;;;;;-0.30;62.05;99180.72;4987602;28;19994;-82
2024/01/15 00:10:28;;;;;;;;;;;;;;;-0.30;62.30;99176.34;5004195;28;19925;-83
2024/01/15 00:12:56;;;;;;;;;;;;;;;-0.28;61.69;99184.84;5019808;28;19925;-84
2024/01/15 00:15:22;;;;;;;;;;;;;;;-0.44;61.70;99187.78;5004008;28;19954;-82
2024/01/15 00:17:47;;;;;;;;;;;;;;;-0.56;61.94;99182.72;5020522;28;19925;-83
2024/01/15 00:20:27;;;;;;;;;;;;;;;-0.60;61.60;99176.13;5020414;28;19914;-83
2024/01/15 00:22:53;;;;;;;;;;;;;;;-0.57;61.38;99173.28;5003531;28;19922;-83
2024/01/15 00:25:18;;;;;;;;;;;;;;;-0.70;61.72;99176.81;5020431;28;19986;-83
2024/01/15 00:27:47;;;;;;;;;;;;;;;-0.74;61.86;99171.97;5019784;28;19921;-83
2024/01/15 00:30:13;;;;;;;;;;;;;;;-0.77;61.74;99182.53;5020235;28;19941;-83
2024/01/15 00:32:39;;;;;;;;;;;;;;;-0.76;61.94;99182.44;5020038;28;19922;-82
2024/01/15 00:35:05;;;;;;;;;;;;;;;-0.72;62.08;99186.47;5020042;28;19921;-83
2024/01/15 00:37:32;;;;;;;;;;;;;;;-0.70;62.37;99176.81;5002593;28;19977;-82
2024/01/15 00:39:59;;;;;;;;;;;;;;;-0.63;62.02;99171.16;5003079;28;19985;-83
2024/01/15 00:42:24;;;;;;;;;;;;;;;-0.58;61.49;99171.63;5019812;28;19921;-83
2024/01/15 00:44:54;;;;;;;;;;;;;;;-0.56;61.38;99167.97;5020054;28;19906;-83
2024/01/15 00:47:28;;;;;;;;;;;;;;;-0.54;62.02;99173.88;5018671;28;19917;-83
2024/01/15 00:49:55;;;;;;;;;;;;;;;-0.52;61.78;99172.00;5002976;28;19945;-83
2024/01/15 00:52:23;;;;;;;;;;;;;;;-0.47;61.71;99171.63;5002258;28;19925;-83
2024/01/15 00:54:49;;;;;;;;;;;;;;;-0.48;61.65;99167.41;5019652;28;19932;-83
2024/01/15 00:57:15;;;;;;;;;;;;;;;-0.44;61.67;99168.81;5019178;28;19897;-83
2024/01/15 00:59:43;;;;;;;;;;;;;;;-0.47;61.67;99169.06;5002221;28;19926;-83
2024/01/15 01:02:10;;;;;;;;;;;;;;;-0.52;61.22;99164.22;5019434;28;19925;-83
2024/01/15 01:04:38;;;;;;;;;;;;;;;-0.50;61.72;99164.91;5019287;28;19922;-83
2024/01/15 01:07:04;;;;;;;;;;;;;;;-0.48;61.43;99163.03;5002836;28;19925;-83
2024/01/15 01:09:31;;;;;;;;;;;;;;;-0.48;61.24;99157.03;5019530;28;19908;-83
2024/01/15 01:11:58;;;;;;;;;;;;;;;-0.48;61.54;99154.44;5002951;28;19973;-84
2024/01/15 01:14:34;;;;;;;;;;;;;;;-0.44;60.94;99156.66;5003951;28;19926;-84
2024/01/15 01:17:00;;;;;;;;;;;;;;;-0.45;61.07;99155.03;5019499;28;19921;-83
2024/01/15 01:19:25;;;;;;;;;;;;;;;-0.42;61.61;99156.56;5000750;28;19912;-83
2024/01/15 01:21:54;;;;;;;;;;;;;;;-0.41;61.75;99163.38;5019101;28;19925;-83
2024/01/15 01:24:20;;;;;;;;;;;;;;;-1.17;61.02;99037.03;5016443;28;19925;-83
2024/01/15 01:26:47;;;;;;;;;;;;;;;-0.44;61.54;99154.06;5018951;28;19898;-84
2024/01/15 01:29:16;;;;;;;;;;;;;;;-0.47;61.57;99148.31;5019026;28;19922;-83
2024/01/15 01:31:46;;;;;;;;;;;;;;;-0.55;61.38;99148.06;5001660;28;19910;-83
2024/01/15 01:34:14;;;;;;;;;;;;;;;-0.63;61.24;99148.66;5019263;28;19906;-83
2024/01/15 01:36:40;;;;;;;;;;;;;;;-0.66;61.30;99138.53;5018984;28;19929;-83
2024/01/15 01:39:08;;;;;;;;;;;;;;;-0.60;61.54;99139.81;5018526;28;19898;-83
2024/01/15 01:41:40;;;;;;;;;;;;;;;-0.56;61.25;99138.63;5001977;28;19898;-83
2024/01/15 01:44:08;;;;;;;;;;;;;;;-0.55;61.36;99141.13;5001937;28;19929;-83
2024/01/15 01:46:39;;;;;;;;;;;;;;;-0.53;61.32;99143.59;5001762;28;19912;-83
2024/01/15 01:49:07;;;;;;;;;;;;;;;-0.53;61.06;99148.78;5017284;28;19898;-83
2024/01/15 01:51:42;;;;;;;;;;;;;;;-0.56;61.29;99149.00;4999170;28;19953;-83
2024/01/15 01:54:09;;;;;;;;;;;;;;;-0.63;61.05;99151.25;5016146;28;19983;-83
2024/01/15 01:56:35;;;;;;;;;;;;;;;-0.72;60.66;99154.53;4986218;28;19914;-82
2024/01/15 01:59:02;;;;;;;;;;;;;;;-0.77;61.31;99146.25;4994123;28;19917;-83
2024/01/15 02:01:28;;;;;;;;;;;;;;;-0.81;61.04;99142.25;5017194;28;19921;-83
2024/01/15 02:03:56;;;;;;;;;;;;;;;-0.85;60.86;99138.22;5018277;28;19922;-83
2024/01/15 02:06:24;;;;;;;;;;;;;;;-0.87;60.90;99134.94;5018247;28;19941;-83
2024/01/15 02:08:59;;;;;;;;;;;;;;;-0.91;60.83;99136.09;5017790;28;19930;-84
2024/01/15 02:11:25;;;;;;;;;;;;;;;-0.96;61.27;99137.28;5001316;28;19946;-83
2024/01/15 02:13:50;;;;;;;;;;;;;;;-0.97;60.98;99135.63;5001790;28;19974;-83
2024/01/15 02:16:18;;;;;;;;;;;;;;;-0.96;60.86;99128.69;5000788;28;19937;-83
2024/01/15 02:18:46;;;;;;;;;;;;;;;-1.00;60.54;99133.25;5018031;28;19948;-83
2024/01/15 02:21:14;;;;;;;;;;;;;;;-1.02;61.23;99126.53;5000931;28;19921;-84
2024/01/15 02:23:39;;;;;;;;;;;;;;;-1.01;61.10;99129.03;5001265;28;19956;-83
2024/01/15 02:26:06;;;;;;;;;;;;;;;-1.11;60.50;99125.47;5001568;28;19902;-83
2024/01/15 02:28:32;;;;;;;;;;;;;;;-1.23;61.12;99128.97;5017940;28;19946;-84
2024/01/15 02:30:58;;;;;;;;;;;;;;;-1.29;61.37;99126.84;5002314;28;19906;-84
2024/01/15 02:33:23;;;;;;;;;;;;;;;-1.36;61.24;99123.06;5004299;28;19948;-84
2024/01/15 02:35:52;;;;;;;;;;;;;;;-1.37;61.56;99121.41;5021777;28;19906;-83
2024/01/15 02:38:18;;;;;;;;;;;;;;;-1.31;61.46;99128.72;5021248;28;19945;-83
2024/01/15 02:40:44;;;;;;;;;;;;;;;-1.25;60.99;99124.84;5005066;28;19946;-83
2024/01/15 02:43:12;;;;;;;;;;;;;;;-1.24;60.99;99137.69;5021448;28;19921;-83
2024/01/15 02:45:38;;;;;;;;;;;;;;;-1.26;60.96;99123.19;5005115;28;19913;-83
2024/01/15 02:48:06;;;;;;;;;;;;;;;-1.25;60.88;99125.66;4988856;28;19922;-83
2024/01/15 02:50:31;;;;;;;;;;;;;;;-1.24;61.57;99123.91;5004623;28;19960;-83
2024/01/15 02:52:59;;;;;;;;;;;;;;;-1.24;61.35;99118.72;5021203;28;19902;-84
2024/01/15 02:55:29;;;;;;;;;;;;;;;-1.27;60.81;99122.38;5020699;28;19922;-83
2024/01/15 03:06:34;;;;;;;;;;;;;;;-1.21;60.82;99114.16;5197574;22;19936;-83
2024/01/15 03:19:47;;;;;;;;;;;;;;;-1.16;60.93;99118.97;5205887;22;19926;-84
2024/01/15 03:22:13;;;;;;;;;;;;;;;-1.16;60.95;99112.03;4987734;28;19989;-84
2024/01/15 03:24:39;;;;;;;;;;;;;;;-1.24;61.02;99114.38;5003204;28;19918;-84
2024/01/15 03:27:05;;;;;;;;;;;;;;;-1.25;61.00;99110.13;4987976;28;19984;-84
2024/01/15 03:29:30;;;;;;;;;;;;;;;-1.33;61.44;99115.88;5020856;28;19965;-84
2024/01/15 03:31:56;;;;;;;;;;;;;;;-1.42;61.03;99116.56;5020222;28;19909;-84
2024/01/15 03:34:22;;;;;;;;;;;;;;;-1.42;61.37;99115.75;5003927;28;19906;-83
2024/01/15 03:36:47;;;;;;;;;;;;;;;-1.43;61.20;99112.31;5004070;28;19937;-84
2024/01/15 03:39:32;;;;;;;;;;;;;;;-1.47;61.12;99113.47;5020768;28;19922;-84
2024/01/15 03:41:59;;;;;;;;;;;;;;;-1.48;61.15;99108.41;5003167;28;19981;-84
2024/01/15 03:44:25;;;;;;;;;;;;;;;-1.46;60.70;99109.13;5020640;28;19941;-83
2024/01/15 03:46:52;;;;;;;;;;;;;;;-1.46;61.42;99103.97;5020254;28;19922;-83
2024/01/15 03:49:19;;;;;;;;;;;;;;;-1.44;61.32;99108.09;5019927;28;19922;-83
2024/01/15 03:51:46;;;;;;;;;;;;;;;-1.38;61.12;99109.41;5020020;28;19977;-84
2024/01/15 03:54:14;;;;;;;;;;;;;;;-1.38;60.62;99114.56;5003462;28;19914;-84
2024/01/15 03:56:41;;;;;;;;;;;;;;;-1.38;60.88;99115.41;5003435;28;19973;-84
2024/01/15 03:59:07;;;;;;;;;;;;;;;-1.41;60.96;99114.81;5020185;28;19957;-84
2024/01/15 04:01:39;;;;;;;;;;;;;;;-1.49;60.87;99107.56;5020390;28;19912;-84
2024/01/15 04:04:04;;;;;;;;;;;;;;;-1.56;60.47;99106.38;5019520;28;19929;-83
2024/01/15 04:06:31;;;;;;;;;;;;;;;-1.56;60.92;99116.72;5019786;28;19961;-84
2024/01/15 04:08:57;;;;;;;;;;;;;;;-1.58;60.59;99117.78;5020357;28;19945;-84
2024/01/15 04:11:23;;;;;;;;;;;;;;;-1.58;61.04;99117.78;5019976;28;19926;-84
2024/01/15 04:13:51;;;;;;;;;;;;;;;-1.58;61.06;99112.59;5019790;28;19970;-83
2024/01/15 04:16:17;;;;;;;;;;;;;;;-1.56;60.93;99110.72;5019821;28;19898;-83
2024/01/15 04:18:43;;;;;;;;;;;;;;;-1.58;60.29;99117.78;5003253;28;19898;-84
2024/01/15 04:21:10;;;;;;;;;;;;;;;-1.56;60.58;99114.13;5002750;28;19989;-84
2024/01/15 04:23:35;;;;;;;;;;;;;;;-1.60;60.66;99108.34;5003119;28;19938;-83
2024/01/15 04:26:01;;;;;;;;;;;;;;;-1.56;60.50;99110.72;5020262;28;19921;-83
2024/01/15 04:28:27;;;;;;;;;;;;;;;-1.60;61.53;99110.94;5019338;28;19929;-84
2024/01/15 04:30:54;;;;;;;;;;;;;;;-1.55;61.02;99113.19;5002965;28;19905;-84
2024/01/15 04:33:20;;;;;;;;;;;;;;;-1.51;60.50;99111.19;5020216;28;19922;-84
2024/01/15 04:35:48;;;;;;;;;;;;;;;-1.47;61.24;99104.91;4986681;28;19901;-83
2024/01/15 04:38:14;;;;;;;;;;;;;;;-1.44;60.78;99102.91;5002411;28;19904;-83
2024/01/15 04:40:40;;;;;;;;;;;;;;;-1.40;60.15;99106.09;5019813;28;20383;-84
2024/01/15 04:43:08;;;;;;;;;;;;;;;-1.44;60.26;99108.09;5019910;28;19906;-83
2024/01/15 04:45:34;;;;;;;;;;;;;;;-1.44;60.33;99110.66;5019897;28;19929;-84
2024/01/15 04:48:01;;;;;;;;;;;;;;;-1.47;61.02;99103.13;5019518;28;19906;-83
2024/01/15 04:50:27;;;;;;;;;;;;;;;-1.42;61.28;99111.38;5019546;28;19912;-83
2024/01/15 04:52:54;;;;;;;;;;;;;;;-1.43;60.40;99106.31;5018880;28;19918;-84
2024/01/15 04:55:22;;;;;;;;;;;;;;;-1.39;60.73;99100.81;5019118;28;19922;-84
2024/01/15 04:57:50;;;;;;;;;;;;;;;-1.40;60.74;99091.38;5019751;28;19921;-83
2024/01/15 05:00:18;;;;;;;;;;;;;;;-1.42;60.87;99095.84;5002458;28;19921;-84
2024/01/15 05:02:44;;;;;;;;;;;;;;;-1.42;61.03;99095.84;5002666;28;19922;-84
2024/01/15 05:05:09;;;;;;;;;;;;;;;-1.41;61.16;99088.91;5002387;28;19928;-84
2024/01/15 05:07:35;;;;;;;;;;;;;;;-1.44;60.87;99089.97;5018802;28;19945;-84
2024/01/15 05:10:07;;;;;;;;;;;;;;;-1.40;60.63;99099.16;5019566;28;19898;-84
2024/01/15 05:12:35;;;;;;;;;;;;;;;-1.39;60.66;99108.56;5019007;28;19922;-84
2024/01/15 05:15:00;;;;;;;;;;;;;;;-1.38;60.84;99114.56;4989567;28;20001;-83
2024/01/15 05:17:28;;;;;;;;;;;;;;;-1.37;60.35;99111.88;5008424;28;20350;-83
2024/01/15 05:19:55;;;;;;;;;;;;;;;-1.38;60.21;99112.81;5017130;28;20001;-83
2024/01/15 05:22:21;;;;;;;;;;;;;;;-1.40;60.87;99096.56;5000969;28;19914;-84
2024/01/15 05:24:49;;;;;;;;;;;;;;;-1.40;60.03;99093.97;5018173;28;19921;-84
2024/01/15 05:27:15;;;;;;;;;;;;;;;-1.41;60.81;99102.69;5018537;28;19918;-83
2024/01/15 05:29:41;;;;;;;;;;;;;;;-1.44;60.07;99105.50;5001325;28;19985;-83
2024/01/15 05:42:31;;;;;;;;;;;;;;;-3.49;60.66;98841.09;5229070;23;19930;-83
2024/01/15 05:45:02;;;;;;;;;;;;;;;-1.68;60.67;99073.63;5018219;28;19937;-84
2024/01/15 05:47:29;;;;;;;;;;;;;;;-1.66;60.72;99063.97;5018624;28;19940;-84
2024/01/15 05:49:54;;;;;;;;;;;;;;;-1.67;60.76;99062.31;4998036;28;19922;-84
2024/01/15 05:52:21;;;;;;;;;;;;;;;-1.65;61.05;99058.69;4994438;28;19960;-83
2024/01/15 05:54:57;;;;;;;;;;;;;;;-1.61;60.20;99060.09;5017468;28;19914;-83
2024/01/15 05:57:23;;;;;;;;;;;;;;;-1.62;60.13;99063.63;5017670;28;20485;-83
2024/01/15 05:59:48;;;;;;;;;;;;;;;-1.65;60.29;99063.03;5018093;28;19929;-83
2024/01/15 06:02:17;;;;;;;;;;;;;;;-1.66;61.11;99059.63;4999912;28;19906;-83
2024/01/15 06:04:42;;;;;;;;;;;;;;;-1.66;60.90;99053.63;4984726;28;19918;-83
2024/01/15 06:07:08;;;;;;;;;;;;;;;-1.65;60.89;99050.09;5017693;28;19913;-83
2024/01/15 06:09:36;;;;;;;;;;;;;;;-1.62;61.20;99047.28;5017315;28;19945;-83
2024/01/15 06:12:02;;;;;;;;;;;;;;;-1.62;60.41;99045.53;5017871;28;19918;-83
2024/01/15 06:14:28;;;;;;;;;;;;;;;-1.54;60.22;99044.94;5017629;28;19948;-83
2024/01/15 06:16:55;;;;;;;;;;;;;;;-1.47;59.90;99047.94;5000018;28;19925;-83
2024/01/15 06:19:21;;;;;;;;;;;;;;;-1.43;60.14;99050.19;5001059;28;19918;-83
2024/01/15 06:21:47;;;;;;;;;;;;;;;-1.39;60.37;99050.78;5017601;28;19925;-83
2024/01/15 06:24:14;;;;;;;;;;;;;;;-1.36;60.50;99059.16;5017762;28;19937;-83
2024/01/15 06:26:41;;;;;;;;;;;;;;;-1.35;60.03;99060.78;5000725;28;19906;-83
2024/01/15 06:29:07;;;;;;;;;;;;;;;-1.40;60.43;99054.31;5000901;28;19902;-83
2024/01/15 06:31:42;;;;;;;;;;;;;;;-1.35;60.74;99047.03;5000588;28;19928;-83
2024/01/15 06:34:27;;;;;;;;;;;;;;;-1.31;60.60;99044.09;5018314;28;19922;-83
2024/01/15 06:36:54;;;;;;;;;;;;;;;-1.30;60.21;99039.72;5017325;28;19922;-83
2024/01/15 06:39:19;;;;;;;;;;;;;;;-1.21;60.66;99046.81;5016900;28;19921;-83
2024/01/15 06:41:46;;;;;;;;;;;;;;;-1.16;60.11;99039.50;5016212;28;19944;-83
2024/01/15 06:44:13;;;;;;;;;;;;;;;-1.09;60.15;99042.47;5000070;28;19918;-83
2024/01/15 06:46:44;;;;;;;;;;;;;;;-1.04;60.60;99027.38;5017249;28;20000;-83
2024/01/15 06:49:09;;;;;;;;;;;;;;;-0.96;60.43;99038.00;5017111;28;19922;-83
2024/01/15 06:51:36;;;;;;;;;;;;;;;-0.92;60.08;99054.94;5017503;28;19917;-83
2024/01/15 06:54:03;;;;;;;;;;;;;;;-0.91;60.52;99045.41;5000576;28;19954;-83
2024/01/15 06:56:29;;;;;;;;;;;;;;;-0.85;60.12;99055.31;5016714;28;19906;-83
2024/01/15 06:58:57;;;;;;;;;;;;;;;-0.80;59.79;99055.78;5015187;28;19922;-83
2024/01/15 07:01:24;;;;;;;;;;;;;;;-0.82;60.43;99060.25;5017558;28;19922;-83
2024/01/15 07:03:52;;;;;;;;;;;;;;;-0.80;59.88;99066.13;5018240;28;19921;-84
2024/01/15 07:06:17;;;;;;;;;;;;;;;-0.77;59.74;99071.09;4984754;28;19933;-83
2024/01/15 07:11:24;;;;;;;;;;;;;;;-0.65;59.75;99072.75;5242413;22;19931;-83
2024/01/15 07:13:49;;;;;;;;;;;;;;;-0.66;59.42;99063.34;5037474;28;19928;-83
2024/01/15 07:16:16;;;;;;;;;;;;;;;-0.67;59.81;99059.91;5021657;28;19918;-83
2024/01/15 07:18:44;;;;;;;;;;;;;;;-0.59;59.80;99048.13;5023573;28;19960;-84
2024/01/15 07:31:55;;;;;;;;;;;;;;;-0.27;59.86;99043.81;5121774;22;19925;-84
2024/01/15 07:34:22;;;;;;;;;;;;;;;-0.19;59.61;99043.22;5020975;28;19937;-83
2024/01/15 09:48:24;;;;;;;;;;;;;;;2.84;60.98;98951.88;5579666;22;19951;-83
2024/01/15 10:04:58;;;;;;;;;;;;;;;1.28;58.79;98677.28;6126467;23;19905;-87
2024/01/15 10:30:49;;;;;;;;;;;;;;;3.70;58.77;98893.16;5017999;28;19960;-82
2024/01/15 10:36:47;;;;;;;;;;;;;;;3.71;58.45;98888.75;4938569;29;20792;-82
2024/01/15 10:45:27;;;;;;;;;;;;;;;3.79;58.17;98866.16;4984181;28;19914;-82
2024/01/15 10:48:11;;;;;;;;;;;;;;;3.74;58.37;98868.41;4999662;28;19969;-84
2024/01/15 10:56:46;;;;;;;;;;;;;;;3.80;58.67;98841.69;5075056;22;19933;-82
2024/01/15 11:02:43;;;;;;;;;;;;;;;3.83;58.81;98822.28;5098841;23;19909;-82
2024/01/15 11:10:49;;;;;;;;;;;;;;;3.88;58.46;98804.38;5809324;22;19910;-82
2024/01/15 11:35:09;;;;;;;;;;;;;;;3.98;57.96;98807.69;5051022;23;19933;-84
2024/01/15 11:43:36;;;;;;;;;;;;;;;4.01;57.65;98799.56;5035933;22;19917;-83
2024/01/15 11:46:22;;;;;;;;;;;;;;;4.07;57.95;98798.13;5005589;28;19944;-84
2024/01/15 11:49:27;;;;;;;;;;;;;;;4.11;57.55;98807.28;5230951;23;19922;-84
2024/01/15 12:10:46;;;;;;;;;;;;;;;4.38;56.05;98773.13;4997989;28;20049;-84
2024/01/15 12:22:13;;;;;;;;;;;;;;;4.29;56.03;98753.16;5149010;23;19998;-83
2024/01/15 12:25:33;;;;;;;;;;;;;;;4.32;56.23;98736.34;4967029;28;19913;-85
2024/01/15 12:31:20;;;;;;;;;;;;;;;4.32;56.02;98729.31;4924426;29;19946;-84
2024/01/15 12:33:50;;;;;;;;;;;;;;;4.29;56.07;98721.00;4908404;29;19908;-82
2024/01/15 12:39:13;;;;;;;;;;;;;;;4.27;56.16;98712.50;5424008;23;19925;-81
2024/01/15 12:41:38;;;;;;;;;;;;;;;4.25;55.86;98712.66;5019558;28;19921;-83
2024/01/15 12:44:04;;;;;;;;;;;;;;;4.26;55.97;98709.06;5019273;28;19932;-82
2024/01/15 12:46:29;;;;;;;;;;;;;;;4.26;55.93;98708.25;5018437;28;19962;-82
2024/01/15 12:48:55;;;;;;;;;;;;;;;4.28;55.80;98704.50;5015076;28;19914;-82
2024/01/15 12:51:24;;;;;;;;;;;;;;;4.33;55.85;98709.25;5018096;28;19926;-82
2024/01/15 12:53:49;;;;;;;;;;;;;;;4.33;55.41;98694.38;5013426;28;19973;-82
2024/01/15 12:56:15;;;;;;;;;;;;;;;4.34;55.36;98700.41;4994833;28;19938;-82
2024/01/15 12:58:40;;;;;;;;;;;;;;;4.36;55.72;98709.75;4992701;28;19914;-83
2024/01/15 13:01:05;;;;;;;;;;;;;;;4.37;55.89;98702.72;4990204;28;19921;-82
2024/01/15 13:03:30;;;;;;;;;;;;;;;4.35;55.85;98705.50;4990467;28;19914;-82
2024/01/15 13:05:56;;;;;;;;;;;;;;;4.34;56.03;98705.66;4995109;28;19945;-83
2024/01/15 13:08:23;;;;;;;;;;;;;;;4.34;55.76;98701.25;4996459;28;19946;-84
2024/01/15 13:10:49;;;;;;;;;;;;;;;4.34;55.90;98700.41;4995505;28;19914;-83
2024/01/15 13:13:14;;;;;;;;;;;;;;;4.31;56.10;98688.50;4995768;28;19918;-83
2024/01/15 13:15:39;;;;;;;;;;;;;;;4.31;55.98;98698.94;4995664;28;20339;-83
2024/01/15 13:18:05;;;;;;;;;;;;;;;4.31;56.19;98690.28;4997210;28;19913;-83
2024/01/15 13:20:30;;;;;;;;;;;;;;;4.27;56.09;98679.34;4998261;28;19930;-84
2024/01/15 13:22:55;;;;;;;;;;;;;;;4.23;56.35;98677.19;4999815;28;19922;-82
2024/01/15 13:57:30;;;;;;;;;;;;;;;3.99;57.59;98670.09;5329098;23;19910;-85
2024/01/15 14:03:19;;;;;;;;;;;;;;;4.02;57.51;98660.16;5361460;23;19917;-85
2024/01/15 14:09:27;;;;;;;;;;;;;;;4.07;57.91;98647.44;5321478;23;19925;-84
2024/01/15 14:12:31;;;;;;;;;;;;;;;4.06;57.73;98648.41;5016719;28;19918;-85
2024/01/15 14:15:15;;;;;;;;;;;;;;;4.05;58.35;98652.00;4999169;28;19907;-84
2024/01/15 14:21:10;;;;;;;;;;;;;;;4.00;59.02;98640.41;5648847;23;19929;-87
2024/01/15 14:33:32;;;;;;;;;;;;;;;3.95;58.99;98637.44;5688895;23;19910;-85
2024/01/15 14:36:20;;;;;;;;;;;;;;;3.93;59.09;98637.59;4926442;29;19927;-84
2024/01/15 14:38:50;;;;;;;;;;;;;;;3.95;58.97;98638.25;4897288;29;19933;-85
2024/01/15 15:56:02;;;;;;;;;;;;;;;3.66;58.92;98611.69;5098604;23;19916;-86
2024/01/15 16:01:42;;;;;;;;;;;;;;;3.61;59.18;98614.75;5022134;28;19913;-83
2024/01/15 16:15:41;;;;;;;;;;;;;;;3.61;59.34;98604.31;5021782;28;19913;-83
2024/01/15 16:18:53;;;;;;;;;;;;;;;3.61;59.54;98601.72;4962150;29;19906;-83
2024/01/15 16:21:30;;;;;;;;;;;;;;;3.61;59.07;98600.91;5070695;23;19933;-84
2024/01/15 16:27:17;;;;;;;;;;;;;;;3.58;59.22;98604.63;5324675;22;19907;-85
2024/01/15 16:29:55;;;;;;;;;;;;;;;3.59;59.08;98610.69;5021132;28;19910;-83
2024/01/15 16:35:29;;;;;;;;;;;;;;;3.51;59.49;98614.06;5050137;23;19910;-82
2024/01/15 16:41:16;;;;;;;;;;;;;;;3.49;60.07;98619.44;5871244;22;19926;-85
2024/01/15 16:46:51;;;;;;;;;;;;;;;3.47;59.96;98631.00;5170081;22;19916;-83
2024/01/15 16:52:52;;;;;;;;;;;;;;;3.38;60.18;98626.72;5045907;23;19936;-83
2024/01/15 16:58:02;;;;;;;;;;;;;;;3.31;60.65;98626.53;5057612;22;19933;-84
2024/01/15 17:06:10;;;;;;;;;;;;;;;3.30;60.55;98600.59;5093768;23;19918;-83
2024/01/15 17:08:51;;;;;;;;;;;;;;;3.31;60.40;98605.66;5066871;22;19910;-83
2024/01/15 17:17:30;;;;;;;;;;;;;;;3.35;60.90;98591.31;5324274;22;19973;-83
2024/01/15 17:19:57;;;;;;;;;;;;;;;3.36;61.50;98586.94;5017878;28;19906;-83
2024/01/15 17:22:22;;;;;;;;;;;;;;;3.40;61.75;98588.25;5019373;28;19918;-83
2024/01/15 17:24:50;;;;;;;;;;;;;;;3.39;61.61;98582.22;5001973;28;19920;-83
2024/01/15 17:27:21;;;;;;;;;;;;;;;3.40;61.43;98590.84;5019492;28;19960;-83
2024/01/15 17:30:13;;;;;;;;;;;;;;;3.41;61.89;98588.09;5003392;28;19922;-83
2024/01/15 17:32:39;;;;;;;;;;;;;;;3.44;61.43;98589.56;5019788;28;19922;-83
2024/01/15 17:35:14;;;;;;;;;;;;;;;3.41;62.49;98582.88;5019317;28;19905;-83
2024/01/15 17:37:41;;;;;;;;;;;;;;;3.39;61.76;98579.59;5011563;28;19921;-82
2024/01/15 17:40:12;;;;;;;;;;;;;;;3.39;62.75;98581.41;5011371;28;19937;-83
2024/01/15 17:42:45;;;;;;;;;;;;;;;3.36;62.81;98576.50;4996295;28;19941;-83
2024/01/15 17:45:22;;;;;;;;;;;;;;;3.33;61.99;98571.59;4999178;28;19922;-83
2024/01/15 17:47:59;;;;;;;;;;;;;;;3.30;62.85;98557.06;4983193;28;19953;-82
2024/01/15 17:50:43;;;;;;;;;;;;;;;3.32;62.11;98611.69;4997467;28;19940;-83
2024/01/15 17:53:34;;;;;;;;;;;;;;;3.34;61.49;98550.56;4999446;28;19914;-83
2024/01/15 17:56:03;;;;;;;;;;;;;;;3.34;62.48;98610.56;5099025;23;19909;-86
2024/01/15 17:58:46;;;;;;;;;;;;;;;3.34;62.10;98547.94;4970635;28;19937;-84
2024/01/15 18:01:31;;;;;;;;;;;;;;;3.34;62.16;98596.69;5019410;28;19906;-84
2024/01/15 18:04:03;;;;;;;;;;;;;;;3.34;62.67;98534.91;4986085;28;19933;-84
2024/01/15 18:06:55;;;;;;;;;;;;;;;3.35;62.10;98523.50;5019760;28;19922;-83
2024/01/15 18:12:17;;;;;;;;;;;;;;;3.36;61.74;98509.47;5003269;22;19957;-82
2024/01/15 18:15:10;;;;;;;;;;;;;;;3.33;62.55;98506.34;4968418;28;19934;-82
2024/01/15 18:20:31;;;;;;;;;;;;;;;3.36;62.02;98506.88;5132205;23;19988;-83
2024/01/15 18:23:35;;;;;;;;;;;;;;;3.37;62.22;98505.06;4979622;28;19942;-83
2024/01/15 18:35:47;;;;;;;;;;;;;;;3.36;62.96;98493.81;5254009;23;19988;-84
2024/01/15 18:38:17;;;;;;;;;;;;;;;3.38;62.88;98498.88;4999755;28;19966;-83
2024/01/15 18:41:10;;;;;;;;;;;;;;;3.37;63.02;98500.66;4999529;28;19907;-83
2024/01/15 18:43:36;;;;;;;;;;;;;;;3.36;62.72;98499.03;5048775;23;19921;-81
2024/01/15 18:46:26;;;;;;;;;;;;;;;3.36;62.76;98504.25;4985960;28;19941;-83
2024/01/15 18:48:57;;;;;;;;;;;;;;;3.38;62.88;98483.22;5019127;28;19990;-83
2024/01/15 18:52:08;;;;;;;;;;;;;;;3.39;62.87;98488.28;4998731;28;19912;-82
2024/01/15 18:57:30;;;;;;;;;;;;;;;3.41;63.04;98482.91;5091099;22;19926;-83
2024/01/15 19:00:31;;;;;;;;;;;;;;;3.42;62.77;98480.13;4999152;28;19941;-85
2024/01/15 19:03:27;;;;;;;;;;;;;;;3.43;62.47;98484.38;4983023;28;19929;-85
2024/01/15 19:08:40;;;;;;;;;;;;;;;3.42;62.10;98484.53;5038782;23;19909;-83
2024/01/15 19:14:21;;;;;;;;;;;;;;;3.40;62.11;98483.88;5201110;22;19909;-83
2024/01/15 19:17:21;;;;;;;;;;;;;;;3.37;63.15;98484.19;4973591;28;19910;-83
2024/01/15 19:19:50;;;;;;;;;;;;;;;3.37;62.60;98478.97;5021884;28;19906;-84
2024/01/15 19:22:49;;;;;;;;;;;;;;;3.37;62.40;98458.94;5156380;23;19910;-85
2024/01/15 19:25:41;;;;;;;;;;;;;;;3.40;62.73;98452.56;4991226;28;19929;-84
2024/01/15 19:28:08;;;;;;;;;;;;;;;3.42;62.39;98446.22;5005705;28;19944;-84
2024/01/15 19:33:42;;;;;;;;;;;;;;;3.38;62.13;98436.25;5022458;28;19921;-83
2024/01/15 19:36:31;;;;;;;;;;;;;;;3.40;62.66;98423.88;5020865;28;19910;-83
2024/01/15 19:39:21;;;;;;;;;;;;;;;3.43;62.72;98426.16;5021291;28;19929;-83
2024/01/15 19:41:54;;;;;;;;;;;;;;;3.44;63.14;98422.56;5001789;28;19934;-83
2024/01/15 19:44:30;;;;;;;;;;;;;;;3.45;62.46;98419.81;5001913;28;19906;-84
2024/01/15 19:47:54;;;;;;;;;;;;;;;3.45;62.47;98419.81;4963177;29;20031;-84
2024/01/15 19:50:41;;;;;;;;;;;;;;;3.41;63.48;98417.69;4906308;29;19931;-83
2024/01/15 19:53:27;;;;;;;;;;;;;;;3.38;63.32;98418.81;4879743;29;19944;-83
2024/01/15 19:55:56;;;;;;;;;;;;;;;3.38;62.66;98421.44;4885266;29;19908;-83
2024/01/15 19:58:28;;;;;;;;;;;;;;;3.37;62.81;98426.81;4868836;29;19924;-83
2024/01/15 20:03:42;;;;;;;;;;;;;;;3.33;63.57;98439.34;4981933;28;19910;-83
2024/01/15 20:09:31;;;;;;;;;;;;;;;3.25;63.20;98435.91;4982987;28;19912;-83
2024/01/15 20:15:11;;;;;;;;;;;;;;;3.28;63.20;98422.53;5136317;23;19952;-82
2024/01/15 20:18:17;;;;;;;;;;;;;;;3.27;64.08;98421.72;5021305;28;19906;-82
2024/01/15 20:20:47;;;;;;;;;;;;;;;3.30;63.95;98420.59;5072151;22;19941;-85
2024/01/15 20:23:49;;;;;;;;;;;;;;;3.30;64.12;98410.97;5001981;28;19954;-83
2024/01/15 20:27:07;;;;;;;;;;;;;;;3.30;64.04;98403.16;5378678;23;19933;-84
2024/01/15 20:30:25;;;;;;;;;;;;;;;3.31;63.89;98412.59;4981657;28;19938;-82
2024/01/15 20:48:00;;;;;;;;;;;;;;;3.30;64.36;98386.69;5021305;28;19936;-83
2024/01/15 20:50:59;;;;;;;;;;;;;;;3.26;64.65;98382.75;5064810;22;19929;-84
2024/01/15 21:02:39;;;;;;;;;;;;;;;3.22;64.29;98391.88;5136377;22;19942;-84
2024/01/15 21:05:55;;;;;;;;;;;;;;;3.21;63.39;98379.81;4980934;28;19934;-83
2024/01/15 21:08:36;;;;;;;;;;;;;;;1.94;63.43;98186.25;5033235;23;19910;-84
2024/01/15 21:14:18;;;;;;;;;;;;;;;3.23;63.33;98367.44;5149745;23;19910;-83
2024/01/15 21:22:05;;;;;;;;;;;;;;;3.23;63.99;98351.78;4892308;22;19932;-84
2024/01/15 21:35:48;;;;;;;;;;;;;;;3.35;63.50;98342.66;5227004;23;19934;-82
2024/01/15 21:38:42;;;;;;;;;;;;;;;3.36;63.54;98337.28;4983847;28;19917;-82
2024/01/15 21:41:33;;;;;;;;;;;;;;;3.36;64.09;98326.84;5065110;22;19933;-84
2024/01/15 21:44:20;;;;;;;;;;;;;;;3.37;63.76;98338.09;4982583;28;19910;-82
2024/01/15 21:47:05;;;;;;;;;;;;;;;3.37;63.58;98330.28;4941080;29;19942;-83
2024/01/15 21:52:11;;;;;;;;;;;;;;;3.36;64.05;98329.47;5068229;23;19918;-83
2024/01/15 22:00:47;;;;;;;;;;;;;;;3.31;63.57;98334.34;5092752;23;19910;-83
2024/01/15 22:03:27;;;;;;;;;;;;;;;3.31;63.86;98323.09;5015315;28;19949;-83
2024/01/15 22:06:35;;;;;;;;;;;;;;;3.26;63.17;98315.75;5003536;28;20089;-83
2024/01/15 22:09:08;;;;;;;;;;;;;;;3.24;63.41;98314.28;4963470;28;19930;-83
2024/01/15 22:12:02;;;;;;;;;;;;;;;3.24;62.74;98317.72;5015805;22;19925;-83
2024/01/15 22:18:02;;;;;;;;;;;;;;;3.30;63.37;98292.78;4999080;28;19916;-81
2024/01/15 22:23:44;;;;;;;;;;;;;;;3.32;62.94;98293.44;5092556;23;19932;-82
2024/01/15 22:35:29;;;;;;;;;;;;;;;3.42;63.48;98294.06;5106847;23;19930;-84
2024/01/15 22:50:18;;;;;;;;;;;;;;;3.39;62.91;98299.63;5144574;22;19916;-83
2024/01/15 22:59:01;;;;;;;;;;;;;;;3.43;62.89;98286.09;5091301;23;19932;-84
2024/01/15 23:01:28;;;;;;;;;;;;;;;3.44;62.60;98292.13;5002486;28;19957;-83
2024/01/15 23:04:38;;;;;;;;;;;;;;;3.48;62.28;98288.22;4963026;28;19906;-83
2024/01/15 23:10:13;;;;;;;;;;;;;;;3.49;62.01;98275.00;5037083;22;20013;-85
2024/01/15 23:12:48;;;;;;;;;;;;;;;3.50;62.24;98267.97;5005841;28;19929;-83